Time;durP1;ratioP1;P1;durP2;ratioP2;P2;SDS_P1;SDS_P2;PMS_P1;PMS_P2;Temp;Humidity;BMP_temperature;BMP_pressure;BME280_temperature;BME280_humidity;BME280_pressure;Samples;Min_cycle;Max_cycle;Signal;HPM_P1;HPM_P2
2022/03/06 00:00:10;;;;;;;0.30;0.30;;;;;;;;;;5005525;28;20053;-78
2022/03/06 00:02:36;;;;;;;0.20;0.20;;;;;;;;;;5006438;28;20026;-77
2022/03/06 00:05:03;;;;;;;0.20;0.20;;;;;;;;;;5004258;28;20280;-78
2022/03/06 00:07:29;;;;;;;0.75;0.70;;;;;;;;;;5005665;28;20058;-77
2022/03/06 00:09:55;;;;;;;0.30;0.30;;;;;;;;;;5005439;28;20414;-76
2022/03/06 00:12:21;;;;;;;0.25;0.25;;;;;;;;;;5005192;28;20332;-76
2022/03/06 00:14:47;;;;;;;0.20;0.20;;;;;;;;;;4994464;28;20089;-76
2022/03/06 00:17:13;;;;;;;0.20;0.20;;;;;;;;;;5005144;28;20044;-76
2022/03/06 00:19:39;;;;;;;0.20;0.20;;;;;;;;;;5003783;28;20037;-76
2022/03/06 00:22:06;;;;;;;0.20;0.20;;;;;;;;;;5005052;28;20072;-76
2022/03/06 00:24:32;;;;;;;0.20;0.20;;;;;;;;;;5004978;28;20025;-76
2022/03/06 00:26:58;;;;;;;0.20;0.20;;;;;;;;;;5004988;28;20041;-76
2022/03/06 00:29:24;;;;;;;0.28;0.28;;;;;;;;;;5005168;28;20047;-76
2022/03/06 00:31:50;;;;;;;0.10;0.10;;;;;;;;;;5004751;28;20037;-75
2022/03/06 00:34:16;;;;;;;0.20;0.20;;;;;;;;;;5004552;28;20038;-76
2022/03/06 00:36:42;;;;;;;0.20;0.20;;;;;;;;;;5004853;28;20937;-76
2022/03/06 00:39:08;;;;;;;0.33;0.33;;;;;;;;;;5004629;28;20815;-75
2022/03/06 00:41:35;;;;;;;0.20;0.20;;;;;;;;;;5005385;28;20030;-76
2022/03/06 00:44:01;;;;;;;0.43;0.43;;;;;;;;;;5004893;28;20096;-76
2022/03/06 00:46:27;;;;;;;0.60;0.60;;;;;;;;;;5004891;28;20116;-75
2022/03/06 00:48:53;;;;;;;0.20;0.20;;;;;;;;;;5004688;28;20084;-76
2022/03/06 00:51:19;;;;;;;0.50;0.50;;;;;;;;;;5004784;28;20034;-76
2022/03/06 00:53:46;;;;;;;0.30;0.30;;;;;;;;;;5005408;28;20030;-76
2022/03/06 00:56:12;;;;;;;0.55;0.55;;;;;;;;;;5004897;28;20401;-76
2022/03/06 00:58:38;;;;;;;0.20;0.20;;;;;;;;;;5002221;28;20053;-76
2022/03/06 01:01:05;;;;;;;0.20;0.20;;;;;;;;;;5003941;28;20096;-76
2022/03/06 01:03:31;;;;;;;0.30;0.30;;;;;;;;;;5004471;28;20104;-76
2022/03/06 01:05:58;;;;;;;0.68;0.68;;;;;;;;;;5004728;28;20030;-81
2022/03/06 01:08:24;;;;;;;0.45;0.45;;;;;;;;;;5005251;28;20038;-81
2022/03/06 01:10:51;;;;;;;0.30;0.30;;;;;;;;;;5004281;28;20675;-81
2022/03/06 01:13:17;;;;;;;;;;;;;;;;;;5004516;28;20549;-82
2022/03/06 01:15:43;;;;;;;0.63;0.63;;;;;;;;;;5003791;28;19913;-79
2022/03/06 01:18:09;;;;;;;0.40;0.40;;;;;;;;;;5004473;28;20045;-78
2022/03/06 01:20:37;;;;;;;0.20;0.20;;;;;;;;;;5004935;28;20026;-78
2022/03/06 01:23:03;;;;;;;0.22;0.22;;;;;;;;;;5004176;28;20045;-77
2022/03/06 01:25:30;;;;;;;0.20;0.20;;;;;;;;;;5004078;28;20029;-81
2022/03/06 01:27:56;;;;;;;0.20;0.20;;;;;;;;;;5004485;28;20038;-81
2022/03/06 01:30:22;;;;;;;0.25;0.25;;;;;;;;;;5004210;28;20038;-81
2022/03/06 01:32:52;;;;;;;0.30;0.30;;;;;;;;;;5004376;28;20034;-80
2022/03/06 01:35:19;;;;;;;0.28;0.28;;;;;;;;;;5003054;28;20493;-80
2022/03/06 01:37:45;;;;;;;0.20;0.20;;;;;;;;;;5003307;28;20125;-80
2022/03/06 01:40:12;;;;;;;0.32;0.32;;;;;;;;;;5003569;28;20033;-80
2022/03/06 01:42:39;;;;;;;0.30;0.30;;;;;;;;;;5003187;28;20022;-80
2022/03/06 01:45:06;;;;;;;0.20;0.20;;;;;;;;;;5003363;28;20038;-78
2022/03/06 01:47:33;;;;;;;0.20;0.20;;;;;;;;;;5003916;28;20909;-81
2022/03/06 01:49:59;;;;;;;0.32;0.32;;;;;;;;;;5003334;28;20046;-81
2022/03/06 01:52:25;;;;;;;0.43;0.43;;;;;;;;;;5004092;28;20026;-80
2022/03/06 01:54:51;;;;;;;1.20;1.17;;;;;;;;;;5003284;28;20618;-81
2022/03/06 01:57:17;;;;;;;1.03;1.03;;;;;;;;;;5003451;28;20090;-81
2022/03/06 01:59:43;;;;;;;0.20;0.20;;;;;;;;;;5003678;28;20132;-80
2022/03/06 02:02:09;;;;;;;0.53;0.53;;;;;;;;;;5001863;28;20044;-82
2022/03/06 02:04:36;;;;;;;0.68;0.68;;;;;;;;;;5002981;28;20041;-80
2022/03/06 02:07:02;;;;;;;0.70;0.70;;;;;;;;;;5003755;28;20038;-80
2022/03/06 02:09:28;;;;;;;0.25;0.25;;;;;;;;;;5003168;28;20044;-80
2022/03/06 02:14:39;;;;;;;0.50;0.50;;;;;;;;;;4992695;28;20038;-81
2022/03/06 02:17:05;;;;;;;0.10;0.10;;;;;;;;;;5002021;28;20526;-81
2022/03/06 02:19:31;;;;;;;0.63;0.63;;;;;;;;;;5002534;28;20118;-81
2022/03/06 02:21:57;;;;;;;0.10;0.10;;;;;;;;;;5003066;28;20084;-81
2022/03/06 02:24:23;;;;;;;0.47;0.47;;;;;;;;;;5002835;28;20030;-81
2022/03/06 02:26:49;;;;;;;0.30;0.30;;;;;;;;;;5003002;28;20112;-81
2022/03/06 02:29:15;;;;;;;0.70;0.70;;;;;;;;;;5002486;28;20034;-82
2022/03/06 02:31:41;;;;;;;0.30;0.30;;;;;;;;;;5003044;28;20104;-81
2022/03/06 02:34:08;;;;;;;0.30;0.30;;;;;;;;;;5003146;28;20421;-80
2022/03/06 02:36:34;;;;;;;1.25;0.65;;;;;;;;;;5003017;28;20062;-81
2022/03/06 02:39:00;;;;;;;0.63;0.63;;;;;;;;;;5002929;28;20547;-80
2022/03/06 02:41:26;;;;;;;0.30;0.30;;;;;;;;;;5001241;28;20413;-80
2022/03/06 02:43:52;;;;;;;2.00;1.42;;;;;;;;;;5002815;28;20041;-80
2022/03/06 02:46:18;;;;;;;0.15;0.15;;;;;;;;;;5002544;28;20029;-80
2022/03/06 02:48:44;;;;;;;3.47;1.10;;;;;;;;;;5002736;28;20595;-80
2022/03/06 02:51:10;;;;;;;0.52;0.52;;;;;;;;;;5002909;28;20132;-81
2022/03/06 02:53:36;;;;;;;0.73;0.73;;;;;;;;;;5003456;28;20033;-81
2022/03/06 02:56:03;;;;;;;0.43;0.43;;;;;;;;;;5002628;28;20237;-80
2022/03/06 02:58:29;;;;;;;0.40;0.40;;;;;;;;;;5002429;28;20054;-80
2022/03/06 03:00:55;;;;;;;0.45;0.45;;;;;;;;;;5002754;28;20815;-80
2022/03/06 03:03:21;;;;;;;0.60;0.60;;;;;;;;;;5000976;28;20072;-79
2022/03/06 03:05:48;;;;;;;0.15;0.15;;;;;;;;;;5002858;28;20060;-76
2022/03/06 03:08:14;;;;;;;0.77;0.77;;;;;;;;;;5002083;28;20125;-75
2022/03/06 03:10:40;;;;;;;0.90;0.70;;;;;;;;;;5002441;28;20030;-75
2022/03/06 03:13:06;;;;;;;0.57;0.57;;;;;;;;;;5001049;28;20041;-75
2022/03/06 03:15:32;;;;;;;0.63;0.63;;;;;;;;;;5002297;28;20279;-75
2022/03/06 03:17:58;;;;;;;0.45;0.45;;;;;;;;;;5002344;28;20037;-74
2022/03/06 03:20:24;;;;;;;3.33;1.02;;;;;;;;;;5001240;28;20033;-75
2022/03/06 03:22:50;;;;;;;0.63;0.63;;;;;;;;;;5002576;28;20030;-74
2022/03/06 03:25:16;;;;;;;0.90;0.90;;;;;;;;;;5002140;28;20601;-74
2022/03/06 03:27:42;;;;;;;0.20;0.20;;;;;;;;;;5000799;28;20572;-74
2022/03/06 03:30:09;;;;;;;0.63;0.63;;;;;;;;;;5002549;28;20033;-75
2022/03/06 03:32:35;;;;;;;0.47;0.47;;;;;;;;;;5002821;28;20049;-75
2022/03/06 03:35:01;;;;;;;0.40;0.40;;;;;;;;;;5002114;28;20065;-74
2022/03/06 03:37:28;;;;;;;0.20;0.20;;;;;;;;;;5002059;28;20110;-74
2022/03/06 03:39:54;;;;;;;0.32;0.32;;;;;;;;;;5003467;28;20026;-74
2022/03/06 03:42:20;;;;;;;0.20;0.20;;;;;;;;;;5005841;28;20041;-75
2022/03/06 03:44:46;;;;;;;0.73;0.73;;;;;;;;;;5006514;28;20030;-76
2022/03/06 03:47:12;;;;;;;1.03;1.03;;;;;;;;;;5005239;28;20040;-76
2022/03/06 03:49:38;;;;;;;0.63;0.63;;;;;;;;;;5005074;28;20800;-76
2022/03/06 03:52:04;;;;;;;1.88;1.45;;;;;;;;;;5005389;28;20025;-76
2022/03/06 03:54:30;;;;;;;0.60;0.60;;;;;;;;;;5005432;28;20026;-76
2022/03/06 03:56:56;;;;;;;0.60;0.60;;;;;;;;;;5005482;28;20034;-77
2022/03/06 03:59:22;;;;;;;0.80;0.80;;;;;;;;;;5005933;28;20521;-76
2022/03/06 04:01:48;;;;;;;0.53;0.53;;;;;;;;;;5005320;28;20041;-76
2022/03/06 04:04:14;;;;;;;1.02;1.02;;;;;;;;;;5005409;28;20099;-76
2022/03/06 04:06:40;;;;;;;0.63;0.63;;;;;;;;;;5005664;28;20494;-81
2022/03/06 04:09:06;;;;;;;0.50;0.50;;;;;;;;;;5005132;28;20091;-81
2022/03/06 04:11:32;;;;;;;0.60;0.60;;;;;;;;;;5006210;28;20022;-81
2022/03/06 04:13:58;;;;;;;0.30;0.30;;;;;;;;;;4999270;28;20034;-81
2022/03/06 04:16:24;;;;;;;0.30;0.30;;;;;;;;;;4999187;28;20041;-83
2022/03/06 04:18:50;;;;;;;0.10;0.10;;;;;;;;;;5005267;28;20030;-82
2022/03/06 04:21:17;;;;;;;0.45;0.45;;;;;;;;;;5005499;28;20030;-83
2022/03/06 04:23:43;;;;;;;0.32;0.32;;;;;;;;;;5002128;28;20604;-82
2022/03/06 04:26:09;;;;;;;0.33;0.33;;;;;;;;;;5005441;28;20034;-77
2022/03/06 04:28:35;;;;;;;0.43;0.43;;;;;;;;;;5005043;28;20061;-78
2022/03/06 04:31:01;;;;;;;0.55;0.55;;;;;;;;;;5004980;28;20276;-79
2022/03/06 04:33:27;;;;;;;0.45;0.45;;;;;;;;;;5005108;28;20030;-78
2022/03/06 04:35:53;;;;;;;1.53;1.43;;;;;;;;;;5005545;28;20041;-81
2022/03/06 04:38:19;;;;;;;1.40;0.90;;;;;;;;;;5004651;28;20048;-81
2022/03/06 04:40:46;;;;;;;1.95;1.85;;;;;;;;;;5004510;28;20515;-80
2022/03/06 04:43:13;;;;;;;0.73;0.70;;;;;;;;;;5004709;28;21001;-81
2022/03/06 04:45:39;;;;;;;0.80;0.80;;;;;;;;;;5004819;28;20034;-81
2022/03/06 04:48:05;;;;;;;0.77;0.77;;;;;;;;;;5004311;28;20047;-82
2022/03/06 04:50:31;;;;;;;0.83;0.83;;;;;;;;;;5005244;28;20034;-82
2022/03/06 04:52:57;;;;;;;0.85;0.85;;;;;;;;;;5002883;28;20134;-82
2022/03/06 04:55:23;;;;;;;0.93;0.93;;;;;;;;;;5004370;28;20095;-82
2022/03/06 04:57:49;;;;;;;0.50;0.50;;;;;;;;;;5004265;28;20168;-81
2022/03/06 05:00:16;;;;;;;0.80;0.80;;;;;;;;;;5004970;28;20042;-82
2022/03/06 05:02:42;;;;;;;0.50;0.50;;;;;;;;;;5004585;28;20036;-82
2022/03/06 05:05:09;;;;;;;2.15;1.20;;;;;;;;;;5004174;28;20148;-81
2022/03/06 05:07:35;;;;;;;1.05;1.05;;;;;;;;;;5004149;28;20577;-82
2022/03/06 05:10:01;;;;;;;0.35;0.35;;;;;;;;;;5002320;28;20056;-81
2022/03/06 05:12:27;;;;;;;0.27;0.27;;;;;;;;;;5003913;28;20022;-82
2022/03/06 05:14:53;;;;;;;1.00;0.75;;;;;;;;;;4992940;28;20026;-80
2022/03/06 05:17:19;;;;;;;0.25;0.25;;;;;;;;;;5003819;28;20036;-80
2022/03/06 05:19:45;;;;;;;0.98;0.95;;;;;;;;;;5004085;28;20041;-79
2022/03/06 05:22:12;;;;;;;0.87;0.87;;;;;;;;;;5004186;28;20034;-80
2022/03/06 05:24:38;;;;;;;;;;;;;;;;;;5004305;28;20096;-81
2022/03/06 05:27:04;;;;;;;0.68;0.68;;;;;;;;;;5004043;28;19913;-81
2022/03/06 05:29:30;;;;;;;0.32;0.32;;;;;;;;;;5004792;28;20038;-81
2022/03/06 05:31:56;;;;;;;1.77;1.00;;;;;;;;;;5002722;28;20026;-81
2022/03/06 05:34:22;;;;;;;0.55;0.55;;;;;;;;;;5003827;28;21000;-81
2022/03/06 05:36:49;;;;;;;0.93;0.93;;;;;;;;;;5004210;28;20025;-81
2022/03/06 05:39:15;;;;;;;0.65;0.63;;;;;;;;;;5003566;28;20038;-79
2022/03/06 05:41:41;;;;;;;0.30;0.30;;;;;;;;;;5004119;28;20580;-78
2022/03/06 05:44:07;;;;;;;3.38;1.27;;;;;;;;;;5003775;28;20038;-81
2022/03/06 05:46:33;;;;;;;0.60;0.60;;;;;;;;;;5004246;28;20112;-81
2022/03/06 05:48:59;;;;;;;0.52;0.52;;;;;;;;;;5003900;28;20868;-81
2022/03/06 05:51:25;;;;;;;0.80;0.80;;;;;;;;;;5003892;28;20413;-80
2022/03/06 05:53:51;;;;;;;0.75;0.75;;;;;;;;;;5003123;28;20477;-81
2022/03/06 05:56:17;;;;;;;0.73;0.73;;;;;;;;;;5004994;28;20053;-80
2022/03/06 05:58:43;;;;;;;1.20;1.20;;;;;;;;;;5003685;28;20057;-81
2022/03/06 06:01:09;;;;;;;1.48;1.38;;;;;;;;;;5004663;28;20037;-81
2022/03/06 06:03:35;;;;;;;0.65;0.65;;;;;;;;;;5004161;28;20037;-81
2022/03/06 06:06:01;;;;;;;1.95;1.67;;;;;;;;;;5003407;28;20417;-81
2022/03/06 06:08:27;;;;;;;1.07;0.97;;;;;;;;;;5002573;28;20041;-81
2022/03/06 06:10:53;;;;;;;0.45;0.45;;;;;;;;;;5003430;28;20042;-81
2022/03/06 06:13:19;;;;;;;1.33;1.23;;;;;;;;;;5003561;28;20117;-81
2022/03/06 06:15:45;;;;;;;0.77;0.77;;;;;;;;;;5001890;28;20040;-81
2022/03/06 06:18:11;;;;;;;0.60;0.60;;;;;;;;;;5003966;28;20030;-81
2022/03/06 06:20:38;;;;;;;0.98;0.98;;;;;;;;;;5004436;28;20048;-80
2022/03/06 06:23:04;;;;;;;0.47;0.47;;;;;;;;;;5003092;28;20030;-82
2022/03/06 06:25:30;;;;;;;0.77;0.77;;;;;;;;;;5002925;28;20088;-82
2022/03/06 06:27:56;;;;;;;0.77;0.70;;;;;;;;;;5002804;28;20037;-82
2022/03/06 06:30:22;;;;;;;0.90;0.90;;;;;;;;;;5003338;28;20053;-80
2022/03/06 06:32:49;;;;;;;0.77;0.77;;;;;;;;;;5003497;28;20032;-80
2022/03/06 06:35:15;;;;;;;0.25;0.25;;;;;;;;;;5002717;28;20042;-81
2022/03/06 06:37:41;;;;;;;0.40;0.40;;;;;;;;;;5003054;28;20100;-80
2022/03/06 06:40:07;;;;;;;2.47;1.10;;;;;;;;;;5003019;28;20128;-81
2022/03/06 06:42:33;;;;;;;0.40;0.40;;;;;;;;;;5003159;28;20049;-82
2022/03/06 06:44:59;;;;;;;0.73;0.73;;;;;;;;;;5003237;28;20045;-82
2022/03/06 06:47:25;;;;;;;0.93;0.93;;;;;;;;;;5003273;28;20405;-79
2022/03/06 06:49:51;;;;;;;0.20;0.20;;;;;;;;;;5002449;28;20061;-80
2022/03/06 06:52:17;;;;;;;0.37;0.37;;;;;;;;;;4995990;28;20128;-80
2022/03/06 06:54:43;;;;;;;0.20;0.20;;;;;;;;;;5003049;28;20514;-80
2022/03/06 06:57:09;;;;;;;0.20;0.20;;;;;;;;;;5002897;28;20026;-80
2022/03/06 06:59:36;;;;;;;0.40;0.40;;;;;;;;;;5003371;28;20177;-80
2022/03/06 07:02:02;;;;;;;0.20;0.20;;;;;;;;;;5002349;28;20363;-80
2022/03/06 07:04:28;;;;;;;0.10;0.10;;;;;;;;;;4997773;28;20029;-79
2022/03/06 07:06:54;;;;;;;0.20;0.20;;;;;;;;;;4992040;28;20029;-77
2022/03/06 07:09:20;;;;;;;0.20;0.20;;;;;;;;;;4995453;28;20046;-77
2022/03/06 07:11:46;;;;;;;0.20;0.20;;;;;;;;;;5003122;28;20076;-77
2022/03/06 07:14:12;;;;;;;0.20;0.20;;;;;;;;;;4994055;28;20443;-77
2022/03/06 07:16:38;;;;;;;0.40;0.40;;;;;;;;;;5004555;28;20794;-77
2022/03/06 07:19:04;;;;;;;0.28;0.28;;;;;;;;;;5006127;28;20737;-77
2022/03/06 07:21:30;;;;;;;0.13;0.13;;;;;;;;;;5006093;28;20037;-77
2022/03/06 07:23:56;;;;;;;0.20;0.20;;;;;;;;;;5004539;28;20141;-77
2022/03/06 07:26:22;;;;;;;0.20;0.20;;;;;;;;;;5006860;28;20110;-78
2022/03/06 07:28:48;;;;;;;0.30;0.30;;;;;;;;;;5006197;28;20137;-78
2022/03/06 07:31:14;;;;;;;0.30;0.30;;;;;;;;;;5006312;28;20050;-79
2022/03/06 07:33:40;;;;;;;0.20;0.20;;;;;;;;;;5006125;28;20088;-79
2022/03/06 07:36:06;;;;;;;0.20;0.20;;;;;;;;;;5005968;28;20026;-81
2022/03/06 07:38:32;;;;;;;0.30;0.30;;;;;;;;;;5006212;28;20453;-80
2022/03/06 07:40:58;;;;;;;0.30;0.30;;;;;;;;;;5005480;28;20034;-77
2022/03/06 07:43:24;;;;;;;0.60;0.60;;;;;;;;;;5004950;28;20041;-81
2022/03/06 07:45:50;;;;;;;0.40;0.40;;;;;;;;;;5003247;28;20041;-80
2022/03/06 07:48:16;;;;;;;0.35;0.35;;;;;;;;;;5004309;28;20034;-82
2022/03/06 07:50:42;;;;;;;0.30;0.30;;;;;;;;;;5003559;28;20040;-83
2022/03/06 07:53:09;;;;;;;0.30;0.30;;;;;;;;;;4999946;28;20287;-83
2022/03/06 07:55:35;;;;;;;0.30;0.30;;;;;;;;;;5005718;28;20033;-82
2022/03/06 07:58:01;;;;;;;0.30;0.30;;;;;;;;;;5006045;28;20040;-80
2022/03/06 08:00:27;;;;;;;0.30;0.30;;;;;;;;;;4996554;28;20417;-81
2022/03/06 08:02:56;;;;;;;0.30;0.30;;;;;;;;;;5005420;28;20029;-79
2022/03/06 08:05:22;;;;;;;0.30;0.30;;;;;;;;;;5005471;28;20042;-80
2022/03/06 08:07:48;;;;;;;0.30;0.30;;;;;;;;;;5004873;28;20767;-81
2022/03/06 08:10:14;;;;;;;0.20;0.20;;;;;;;;;;5005640;28;20230;-80
2022/03/06 08:12:41;;;;;;;0.30;0.30;;;;;;;;;;5006117;28;20030;-80
2022/03/06 08:15:08;;;;;;;0.30;0.30;;;;;;;;;;4994165;28;20773;-82
2022/03/06 08:17:34;;;;;;;;;;;;;;;;;;5005285;28;20033;-81
2022/03/06 08:20:00;;;;;;;0.30;0.30;;;;;;;;;;4998968;28;19914;-82
2022/03/06 08:22:26;;;;;;;0.30;0.30;;;;;;;;;;4999041;28;20535;-82
2022/03/06 08:24:54;;;;;;;0.30;0.30;;;;;;;;;;5004299;28;20269;-82
2022/03/06 08:27:21;;;;;;;0.30;0.30;;;;;;;;;;5003371;28;20299;-80
2022/03/06 08:29:48;;;;;;;0.30;0.30;;;;;;;;;;5003800;28;20045;-78
2022/03/06 08:32:14;;;;;;;0.30;0.30;;;;;;;;;;5004049;28;20040;-80
2022/03/06 08:34:40;;;;;;;0.30;0.30;;;;;;;;;;5003540;28;20041;-81
2022/03/06 08:37:06;;;;;;;0.30;0.30;;;;;;;;;;5004273;28;20026;-79
2022/03/06 08:39:32;;;;;;;0.30;0.30;;;;;;;;;;5005170;28;20407;-84
2022/03/06 08:41:58;;;;;;;0.30;0.30;;;;;;;;;;5004852;28;20026;-83
2022/03/06 08:44:24;;;;;;;0.20;0.20;;;;;;;;;;5005504;28;20041;-82
2022/03/06 08:46:50;;;;;;;0.20;0.20;;;;;;;;;;5004498;28;20018;-82
2022/03/06 08:49:16;;;;;;;0.20;0.20;;;;;;;;;;5003036;28;20099;-82
2022/03/06 08:51:42;;;;;;;0.30;0.30;;;;;;;;;;5002165;28;20125;-82
2022/03/06 08:54:09;;;;;;;0.30;0.30;;;;;;;;;;5003123;28;20152;-79
2022/03/06 08:56:35;;;;;;;0.23;0.23;;;;;;;;;;4998609;28;20474;-81
2022/03/06 08:59:01;;;;;;;0.20;0.20;;;;;;;;;;5002438;28;20297;-80
2022/03/06 09:01:27;;;;;;;0.20;0.20;;;;;;;;;;4999701;28;20456;-82
2022/03/06 09:03:53;;;;;;;0.20;0.20;;;;;;;;;;5002872;28;20280;-82
2022/03/06 09:06:19;;;;;;;0.20;0.20;;;;;;;;;;5001683;28;20041;-82
2022/03/06 09:08:45;;;;;;;0.20;0.20;;;;;;;;;;5002051;28;20112;-82
2022/03/06 09:11:12;;;;;;;0.20;0.20;;;;;;;;;;5003409;28;20037;-79
2022/03/06 09:13:38;;;;;;;0.20;0.20;;;;;;;;;;5000120;28;20312;-79
2022/03/06 09:16:04;;;;;;;0.20;0.20;;;;;;;;;;5002454;28;20034;-77
2022/03/06 09:18:30;;;;;;;0.20;0.20;;;;;;;;;;4999706;28;20718;-79
2022/03/06 09:20:57;;;;;;;0.20;0.20;;;;;;;;;;5003549;28;20121;-81
2022/03/06 09:23:23;;;;;;;0.20;0.20;;;;;;;;;;5003510;28;20226;-82
2022/03/06 09:25:49;;;;;;;0.20;0.20;;;;;;;;;;4997640;28;20406;-78
2022/03/06 09:28:15;;;;;;;0.20;0.20;;;;;;;;;;5003344;28;20045;-80
2022/03/06 09:30:42;;;;;;;0.30;0.30;;;;;;;;;;5003569;28;20037;-80
2022/03/06 09:33:08;;;;;;;0.20;0.20;;;;;;;;;;5003612;28;20281;-79
2022/03/06 09:35:35;;;;;;;0.20;0.20;;;;;;;;;;5003715;28;20462;-80
2022/03/06 09:38:01;;;;;;;0.20;0.20;;;;;;;;;;5003459;28;20026;-82
2022/03/06 09:40:28;;;;;;;0.20;0.20;;;;;;;;;;5002189;28;20034;-82
2022/03/06 09:42:54;;;;;;;0.20;0.20;;;;;;;;;;5003283;28;20033;-82
2022/03/06 09:45:21;;;;;;;0.20;0.20;;;;;;;;;;5004042;28;20034;-83
2022/03/06 09:47:47;;;;;;;0.20;0.20;;;;;;;;;;5004601;28;20026;-84
2022/03/06 09:50:15;;;;;;;0.20;0.20;;;;;;;;;;5003288;28;20056;-81
2022/03/06 09:52:41;;;;;;;0.20;0.20;;;;;;;;;;5003091;28;20535;-81
2022/03/06 09:55:07;;;;;;;0.30;0.30;;;;;;;;;;5003226;28;20405;-83
2022/03/06 09:57:33;;;;;;;0.30;0.30;;;;;;;;;;4990944;28;20030;-84
2022/03/06 09:59:59;;;;;;;0.20;0.20;;;;;;;;;;5003651;28;20046;-82
2022/03/06 10:02:26;;;;;;;0.20;0.20;;;;;;;;;;4997204;28;20083;-82
2022/03/06 10:04:52;;;;;;;0.20;0.20;;;;;;;;;;5003293;28;20030;-83
2022/03/06 10:07:21;;;;;;;0.20;0.20;;;;;;;;;;5003356;28;20049;-81
2022/03/06 10:09:52;;;;;;;0.20;0.20;;;;;;;;;;5002963;28;20038;-81
2022/03/06 10:12:21;;;;;;;0.20;0.20;;;;;;;;;;4987921;28;20076;-82
2022/03/06 10:14:47;;;;;;;0.30;0.30;;;;;;;;;;4988448;28;20048;-81
2022/03/06 10:17:13;;;;;;;0.20;0.20;;;;;;;;;;5003358;28;20041;-80
2022/03/06 10:19:52;;;;;;;0.20;0.20;;;;;;;;;;5003210;28;20077;-81
2022/03/06 10:22:18;;;;;;;0.20;0.20;;;;;;;;;;5003555;28;20057;-80
2022/03/06 10:24:51;;;;;;;0.20;0.20;;;;;;;;;;5003268;28;20036;-81
2022/03/06 10:27:37;;;;;;;0.20;0.20;;;;;;;;;;4987756;28;20112;-81
2022/03/06 10:30:21;;;;;;;0.20;0.20;;;;;;;;;;5000186;28;20772;-81
2022/03/06 10:32:47;;;;;;;0.20;0.20;;;;;;;;;;4999604;28;20030;-81
2022/03/06 10:35:13;;;;;;;0.20;0.20;;;;;;;;;;5002742;28;20034;-82
2022/03/06 10:37:40;;;;;;;0.30;0.30;;;;;;;;;;5001195;28;20089;-81
2022/03/06 10:40:07;;;;;;;0.30;0.30;;;;;;;;;;5002301;28;20276;-81
2022/03/06 10:42:33;;;;;;;0.30;0.30;;;;;;;;;;5003171;28;20018;-81
2022/03/06 10:44:59;;;;;;;0.30;0.30;;;;;;;;;;5002742;28;20442;-80
2022/03/06 10:47:26;;;;;;;0.20;0.20;;;;;;;;;;5003253;28;20108;-80
2022/03/06 10:50:03;;;;;;;0.30;0.30;;;;;;;;;;5004090;28;20347;-80
2022/03/06 10:52:29;;;;;;;0.20;0.20;;;;;;;;;;5006643;28;20036;-81
2022/03/06 10:54:57;;;;;;;0.20;0.20;;;;;;;;;;5006614;28;20723;-81
2022/03/06 10:57:24;;;;;;;0.30;0.30;;;;;;;;;;5006831;28;20037;-81
2022/03/06 10:59:50;;;;;;;0.20;0.20;;;;;;;;;;5006980;28;20554;-81
2022/03/06 11:02:17;;;;;;;0.20;0.20;;;;;;;;;;5005874;28;20037;-80
2022/03/06 11:04:45;;;;;;;0.30;0.30;;;;;;;;;;5006922;28;20033;-81
2022/03/06 11:07:12;;;;;;;0.20;0.20;;;;;;;;;;5006810;28;20026;-80
2022/03/06 11:09:38;;;;;;;0.25;0.25;;;;;;;;;;5006900;28;20095;-79
2022/03/06 11:12:04;;;;;;;0.20;0.20;;;;;;;;;;5005252;28;20093;-81
2022/03/06 11:14:32;;;;;;;0.20;0.20;;;;;;;;;;4992482;28;20049;-81
2022/03/06 11:16:58;;;;;;;0.20;0.20;;;;;;;;;;5005865;28;20693;-81
2022/03/06 11:19:25;;;;;;;0.33;0.33;;;;;;;;;;5003961;28;20041;-81
2022/03/06 11:21:55;;;;;;;0.35;0.35;;;;;;;;;;5006465;28;20308;-80
2022/03/06 11:24:25;;;;;;;0.35;0.35;;;;;;;;;;4992074;28;20033;-81
2022/03/06 11:27:10;;;;;;;0.30;0.30;;;;;;;;;;5007147;28;20422;-83
2022/03/06 11:30:02;;;;;;;0.20;0.20;;;;;;;;;;5006787;28;20036;-84
2022/03/06 11:32:28;;;;;;;0.30;0.30;;;;;;;;;;5006704;28;20042;-82
2022/03/06 11:35:15;;;;;;;0.20;0.20;;;;;;;;;;5006116;28;20026;-81
2022/03/06 11:37:46;;;;;;;0.25;0.25;;;;;;;;;;5004664;28;20474;-82
2022/03/06 11:40:30;;;;;;;0.20;0.20;;;;;;;;;;5006884;28;20026;-80
2022/03/06 11:42:57;;;;;;;0.20;0.20;;;;;;;;;;5004549;28;20396;-81
2022/03/06 11:45:23;;;;;;;;;;;;;;;;;;5006900;28;20030;-80
2022/03/06 11:47:49;;;;;;;0.20;0.20;;;;;;;;;;5006386;28;19916;-82
2022/03/06 11:50:21;;;;;;;0.20;0.20;;;;;;;;;;5005540;28;20057;-80
2022/03/06 11:52:47;;;;;;;0.20;0.20;;;;;;;;;;5005536;28;20030;-81
2022/03/06 11:55:30;;;;;;;0.20;0.20;;;;;;;;;;5005423;28;20438;-82
2022/03/06 11:57:56;;;;;;;0.30;0.30;;;;;;;;;;5004331;28;20597;-83
2022/03/06 12:00:24;;;;;;;0.20;0.20;;;;;;;;;;5002242;28;20034;-80
2022/03/06 12:03:01;;;;;;;0.20;0.20;;;;;;;;;;5003861;28;20076;-80
2022/03/06 12:05:46;;;;;;;0.20;0.20;;;;;;;;;;5019682;28;20107;-81
2022/03/06 12:08:13;;;;;;;0.30;0.30;;;;;;;;;;5005017;28;20121;-81
2022/03/06 12:10:40;;;;;;;0.20;0.20;;;;;;;;;;5005179;28;20320;-82
2022/03/06 12:13:16;;;;;;;0.20;0.20;;;;;;;;;;5005123;28;20449;-81
2022/03/06 12:15:43;;;;;;;0.20;0.20;;;;;;;;;;5004884;28;20080;-81
2022/03/06 12:18:17;;;;;;;0.20;0.20;;;;;;;;;;5003778;28;20516;-80
2022/03/06 12:20:44;;;;;;;0.20;0.20;;;;;;;;;;5005295;28;20049;-80
2022/03/06 12:23:20;;;;;;;0.20;0.20;;;;;;;;;;5004942;28;20034;-80
2022/03/06 12:25:51;;;;;;;0.20;0.20;;;;;;;;;;5005010;28;20041;-80
2022/03/06 12:28:17;;;;;;;0.20;0.20;;;;;;;;;;5004510;28;20678;-80
2022/03/06 12:30:43;;;;;;;0.20;0.20;;;;;;;;;;5004316;28;20025;-79
2022/03/06 12:33:29;;;;;;;0.20;0.20;;;;;;;;;;4997273;28;20399;-79
2022/03/06 12:36:09;;;;;;;0.20;0.20;;;;;;;;;;5004032;28;20364;-79
2022/03/06 12:38:35;;;;;;;0.30;0.30;;;;;;;;;;5005829;28;20064;-79
2022/03/06 12:41:01;;;;;;;0.33;0.33;;;;;;;;;;5004813;28;20042;-79
2022/03/06 12:43:31;;;;;;;0.20;0.20;;;;;;;;;;5004678;28;20289;-80
2022/03/06 12:45:57;;;;;;;0.20;0.20;;;;;;;;;;5005061;28;20029;-78
2022/03/06 12:48:23;;;;;;;0.20;0.20;;;;;;;;;;5004866;28;20061;-79
2022/03/06 12:50:49;;;;;;;0.20;0.20;;;;;;;;;;5005547;28;20070;-79
2022/03/06 12:53:19;;;;;;;0.30;0.30;;;;;;;;;;5004718;28;20777;-79
2022/03/06 12:55:45;;;;;;;0.20;0.20;;;;;;;;;;5004435;28;20095;-78
2022/03/06 12:58:11;;;;;;;0.30;0.30;;;;;;;;;;5004410;28;20042;-79
2022/03/06 13:00:37;;;;;;;0.20;0.20;;;;;;;;;;5004597;28;20052;-79
2022/03/06 13:03:07;;;;;;;0.20;0.20;;;;;;;;;;5005001;28;20026;-78
2022/03/06 13:05:34;;;;;;;0.20;0.20;;;;;;;;;;5003487;28;20029;-78
2022/03/06 13:08:00;;;;;;;;;;;;;;;;;;5005245;28;20501;-79
2022/03/06 13:10:26;;;;;;;0.30;0.30;;;;;;;;;;5004658;28;19928;-79
2022/03/06 13:12:53;;;;;;;0.20;0.20;;;;;;;;;;5003362;28;20026;-79
2022/03/06 13:15:19;;;;;;;;;;;;;;;;;;4994480;28;20293;-79
2022/03/06 13:18:02;;;;;;;0.20;0.20;;;;;;;;;;5000657;28;19920;-78
2022/03/06 13:20:30;;;;;;;0.20;0.20;;;;;;;;;;5004169;28;20701;-79
2022/03/06 13:22:56;;;;;;;0.25;0.25;;;;;;;;;;5004084;28;20568;-79
2022/03/06 13:25:24;;;;;;;0.20;0.20;;;;;;;;;;5004164;28;20822;-78
2022/03/06 13:27:50;;;;;;;0.20;0.20;;;;;;;;;;5004504;28;20561;-79
2022/03/06 13:30:18;;;;;;;0.30;0.30;;;;;;;;;;5003478;28;20107;-79
2022/03/06 13:32:57;;;;;;;0.20;0.20;;;;;;;;;;5004718;28;20045;-79
2022/03/06 13:35:36;;;;;;;0.20;0.20;;;;;;;;;;5003735;28;20072;-79
2022/03/06 13:38:04;;;;;;;0.20;0.20;;;;;;;;;;5003873;28;20452;-79
2022/03/06 13:40:35;;;;;;;0.20;0.20;;;;;;;;;;5003905;28;20042;-79
2022/03/06 13:43:01;;;;;;;0.20;0.20;;;;;;;;;;5003883;28;20053;-79
2022/03/06 13:45:27;;;;;;;0.15;0.15;;;;;;;;;;5003759;28;20048;-78
2022/03/06 13:47:57;;;;;;;0.20;0.20;;;;;;;;;;5003812;28;20033;-78
2022/03/06 13:50:26;;;;;;;0.20;0.20;;;;;;;;;;5001689;28;20038;-79
2022/03/06 13:52:53;;;;;;;0.20;0.20;;;;;;;;;;5003502;28;20505;-79
2022/03/06 13:55:20;;;;;;;0.20;0.20;;;;;;;;;;5003407;28;20113;-79
2022/03/06 13:57:59;;;;;;;0.25;0.25;;;;;;;;;;5003600;28;20026;-79
2022/03/06 14:00:26;;;;;;;0.20;0.20;;;;;;;;;;4989029;28;20033;-79
2022/03/06 14:03:03;;;;;;;0.20;0.20;;;;;;;;;;5002769;28;20120;-80
2022/03/06 14:05:31;;;;;;;0.20;0.20;;;;;;;;;;4999179;28;20462;-80
2022/03/06 14:08:09;;;;;;;0.30;0.30;;;;;;;;;;5000223;28;20026;-80
2022/03/06 14:10:40;;;;;;;0.20;0.20;;;;;;;;;;5002156;28;20045;-80
2022/03/06 14:13:26;;;;;;;0.20;0.20;;;;;;;;;;5004346;28;20116;-80
2022/03/06 14:15:53;;;;;;;0.20;0.20;;;;;;;;;;5003318;28;20025;-80
2022/03/06 14:18:18;;;;;;;;;;;;;;;;;;5001571;28;20026;-80
2022/03/06 14:20:45;;;;;;;0.20;0.20;;;;;;;;;;5005441;28;19929;-79
2022/03/06 14:23:11;;;;;;;0.20;0.20;;;;;;;;;;4998950;28;20038;-80
2022/03/06 14:25:37;;;;;;;0.30;0.30;;;;;;;;;;5003299;28;20037;-81
2022/03/06 14:28:04;;;;;;;0.20;0.20;;;;;;;;;;5004611;28;20037;-81
2022/03/06 14:30:30;;;;;;;0.20;0.20;;;;;;;;;;5003765;28;20042;-82
2022/03/06 14:32:56;;;;;;;0.20;0.20;;;;;;;;;;4989289;28;20052;-81
2022/03/06 14:35:22;;;;;;;0.20;0.20;;;;;;;;;;5004875;28;20038;-81
2022/03/06 14:37:52;;;;;;;0.20;0.20;;;;;;;;;;5004036;28;20022;-81
2022/03/06 14:40:18;;;;;;;0.30;0.30;;;;;;;;;;4997939;28;20029;-81
2022/03/06 14:42:44;;;;;;;0.20;0.20;;;;;;;;;;4997270;28;20063;-80
2022/03/06 14:45:10;;;;;;;0.20;0.20;;;;;;;;;;5004241;28;20053;-81
2022/03/06 14:47:36;;;;;;;0.20;0.20;;;;;;;;;;4999238;28;20044;-79